Rose Hill, North Dakota
Current Conditions -  °F | °C
As of 11:35 AM on Tuesday 21 Oct 2014 (Local Time) from K46D Reporting Station
Clear Clear  
Wind Chill: 59°   Ceiling: Unl
Heat Index: 59°   Visibility: 8mi
Dew Point: 41°   Wind: 23mph
Humidity: 51%   Direction: 160°SSE
Pressure: 29.85"   Gusts: 29mph
Location:  47.4573°N, 99.0752°W
Report Text: K46D 211635Z AUTO 16020G25KT 8SM CLR 15/05 A2985 RMK AO2
Loading
Personal Weather Stations






























Interactive Weather Map
Tropical Storm Tracking
New forecast layout! Learn more

10-Day Weather Forecast

Advertisements
Track Severe Weather on mobile